Weather at NYK Tennozu Building Helipad

Public forecast

Using degrees Celsius for public forecast. Weather courtesy of forecast.io.

Closest aviation weather report (METAR) to NYK Tennozu Building Helipad

Closest report is Tokyo Heliport, 4.4 nm (8.2 km) E.

2024/07/19 07:00 (retrieved 47 minutes ago)

RJTI 190700Z 17011KT 9999 FEW030 BKN/// 30/26 Q1007

Closest aviation forecast (TAF) to NYK Tennozu Building Helipad

Closest forecast is Tokyo Haneda International Airport, 4.4 nm (8.2 km) SSE.

2024/07/19 06:30 (retrieved 1 hour ago)

TAF RJTT 190505Z 1906/2012 19014KT 9999 FEW030